Time;durP1;ratioP1;P1;durP2;ratioP2;P2;SDS_P1;SDS_P2;PMS_P1;PMS_P2;Temp;Humidity;BMP_temperature;BMP_pressure;BME280_temperature;BME280_humidity;BME280_pressure;Samples;Min_cycle;Max_cycle;Signal;HPM_P1;HPM_P2
2022/03/19 00:00:21;;;;;;;;;;;9.90;99.90;;;;;;5013023;28;20373;-75
2022/03/19 00:02:47;;;;;;;;;;;9.90;99.90;;;;;;5012429;28;19913;-75
2022/03/19 00:05:13;;;;;;;;;;;9.80;99.90;;;;;;5012595;28;19936;-75
2022/03/19 00:07:40;;;;;;;;;;;9.90;99.90;;;;;;5013032;28;19913;-75
2022/03/19 00:10:08;;;;;;;;;;;9.90;99.90;;;;;;5012818;28;19922;-75
2022/03/19 00:12:40;;;;;;;;;;;9.90;99.90;;;;;;5012624;28;19909;-75
2022/03/19 00:15:07;;;;;;;;;;;9.80;99.90;;;;;;5012934;28;20308;-75
2022/03/19 00:17:33;;;;;;;;;;;9.90;99.90;;;;;;5012452;28;20381;-75
2022/03/19 00:19:58;;;;;;;;;;;9.90;99.90;;;;;;5026220;28;19940;-75
2022/03/19 00:22:24;;;;;;;;;;;9.90;99.90;;;;;;5033878;28;19909;-75
2022/03/19 00:24:50;;;;;;;;;;;9.90;99.90;;;;;;5035698;28;20011;-74
2022/03/19 00:27:15;;;;;;;;;;;9.90;99.90;;;;;;5025674;28;19910;-75
2022/03/19 00:29:41;;;;;;;;;;;9.90;99.90;;;;;;5015804;28;19913;-75
2022/03/19 00:32:06;;;;;;;;;;;9.90;99.90;;;;;;5016703;28;19936;-75
2022/03/19 00:34:32;;;;;;;;;;;9.80;99.90;;;;;;5015853;28;19910;-75
2022/03/19 00:36:58;;;;;;;;;;;9.80;99.90;;;;;;5015983;28;19986;-75
2022/03/19 00:39:24;;;;;;;;;;;9.90;99.90;;;;;;5015755;28;19914;-75
2022/03/19 00:41:49;;;;;;;;;;;9.90;99.90;;;;;;5015974;28;19968;-75
2022/03/19 00:44:15;;;;;;;;;;;9.90;99.90;;;;;;5016033;28;19967;-75
2022/03/19 00:46:41;;;;;;;;;;;9.90;99.90;;;;;;5015403;28;20365;-75
2022/03/19 00:49:06;;;;;;;;;;;9.90;99.90;;;;;;5015760;28;19996;-75
2022/03/19 00:51:32;;;;;;;;;;;9.90;99.90;;;;;;5015983;28;19954;-75
2022/03/19 00:53:58;;;;;;;;;;;9.90;99.90;;;;;;5015559;28;20001;-75
2022/03/19 00:56:23;;;;;;;;;;;9.90;99.90;;;;;;5016286;28;19945;-75
2022/03/19 00:58:49;;;;;;;;;;;9.90;99.90;;;;;;5015322;28;19921;-75
2022/03/19 01:01:15;;;;;;;;;;;9.90;99.90;;;;;;5015315;28;19928;-75
2022/03/19 01:03:40;;;;;;;;;;;9.90;99.90;;;;;;5015881;28;19917;-75
2022/03/19 01:06:06;;;;;;;;;;;9.90;99.90;;;;;;5015527;28;20000;-75
2022/03/19 01:08:31;;;;;;;;;;;9.90;99.90;;;;;;5015450;28;19941;-75
2022/03/19 01:10:57;;;;;;;;;;;9.90;99.90;;;;;;5015345;28;19989;-75
2022/03/19 01:13:22;;;;;;;;;;;10.00;99.90;;;;;;5029363;28;19909;-75
2022/03/19 01:15:48;;;;;;;;;;;10.00;99.90;;;;;;5015093;28;19928;-75
2022/03/19 01:18:13;;;;;;;;;;;10.00;99.90;;;;;;5013839;28;19913;-75
2022/03/19 01:20:40;;;;;;;;;;;10.10;99.90;;;;;;5012269;28;20043;-75
2022/03/19 01:23:05;;;;;;;;;;;10.10;99.90;;;;;;5014256;28;20284;-75
2022/03/19 01:25:31;;;;;;;;;;;10.20;99.90;;;;;;5013584;28;19909;-75
2022/03/19 01:27:56;;;;;;;;;;;10.20;99.90;;;;;;5013200;28;19913;-75
2022/03/19 01:30:22;;;;;;;;;;;10.20;99.90;;;;;;5013216;28;20008;-75
2022/03/19 01:32:48;;;;;;;;;;;10.30;99.90;;;;;;5013302;28;19972;-75
2022/03/19 01:35:16;;;;;;;;;;;10.10;99.90;;;;;;5011037;28;20345;-75
2022/03/19 01:37:41;;;;;;;;;;;10.20;99.90;;;;;;5013386;28;19994;-75
2022/03/19 01:40:08;;;;;;;;;;;10.30;99.90;;;;;;5013610;28;20002;-75
2022/03/19 01:42:35;;;;;;;;;;;10.30;99.90;;;;;;5010645;28;19949;-75
2022/03/19 01:45:01;;;;;;;;;;;10.20;99.90;;;;;;5012802;28;20377;-75
2022/03/19 01:47:27;;;;;;;;;;;10.30;99.90;;;;;;5013104;28;20016;-75
2022/03/19 01:49:52;;;;;;;;;;;10.40;99.90;;;;;;5012910;28;20001;-75
2022/03/19 01:52:18;;;;;;;;;;;10.40;99.90;;;;;;5013242;28;20377;-75
2022/03/19 01:54:46;;;;;;;;;;;10.40;99.90;;;;;;5013030;28;19933;-75
2022/03/19 01:57:14;;;;;;;;;;;10.40;99.90;;;;;;5012967;28;19909;-75
2022/03/19 01:59:40;;;;;;;;;;;10.40;99.90;;;;;;5013019;28;19918;-75
2022/03/19 02:02:07;;;;;;;;;;;10.40;99.90;;;;;;5014118;28;19921;-75
2022/03/19 02:04:36;;;;;;;;;;;10.40;99.90;;;;;;5014669;28;19910;-75
2022/03/19 02:07:02;;;;;;;;;;;10.50;99.90;;;;;;5014568;28;19913;-75
2022/03/19 02:09:28;;;;;;;;;;;10.60;99.90;;;;;;5014224;28;19914;-75
2022/03/19 02:11:54;;;;;;;;;;;10.60;99.90;;;;;;5013960;28;19932;-74
2022/03/19 02:14:19;;;;;;;;;;;10.50;99.90;;;;;;5013788;28;19921;-74
2022/03/19 02:16:46;;;;;;;;;;;10.60;99.90;;;;;;5014417;28;19913;-74
2022/03/19 02:19:11;;;;;;;;;;;10.60;99.90;;;;;;5014108;28;19910;-74
2022/03/19 02:21:41;;;;;;;;;;;10.50;99.90;;;;;;5014035;28;20008;-74
2022/03/19 02:26:51;;;;;;;;;;;10.50;99.90;;;;;;5014005;28;20388;-74
2022/03/19 02:29:19;;;;;;;;;;;10.40;99.90;;;;;;5013235;28;20475;-74
2022/03/19 02:31:46;;;;;;;;;;;10.40;99.90;;;;;;5014020;28;20004;-74
2022/03/19 02:34:12;;;;;;;;;;;10.30;99.90;;;;;;5013671;28;20373;-74
2022/03/19 02:36:40;;;;;;;;;;;10.40;99.90;;;;;;5013571;28;19915;-74
2022/03/19 02:39:16;;;;;;;;;;;10.30;99.90;;;;;;5013730;28;19913;-74
2022/03/19 02:41:42;;;;;;;;;;;10.40;99.90;;;;;;5013552;28;19949;-74
2022/03/19 02:44:09;;;;;;;;;;;10.20;99.90;;;;;;5013295;28;19921;-74
2022/03/19 02:46:39;;;;;;;;;;;10.20;99.90;;;;;;5013165;28;19952;-74
2022/03/19 02:49:04;;;;;;;;;;;10.20;99.90;;;;;;5013384;28;19965;-74
2022/03/19 02:51:32;;;;;;;;;;;10.10;99.90;;;;;;5013559;28;20040;-74
2022/03/19 02:53:57;;;;;;;;;;;10.20;99.90;;;;;;5013429;28;20270;-74
2022/03/19 02:56:23;;;;;;;;;;;10.00;99.90;;;;;;5013447;28;19977;-74
2022/03/19 02:58:48;;;;;;;;;;;9.90;99.90;;;;;;5013194;28;19963;-74
2022/03/19 03:01:14;;;;;;;;;;;10.00;99.90;;;;;;5012904;28;19936;-75
2022/03/19 03:03:41;;;;;;;;;;;10.00;99.90;;;;;;5013727;28;19921;-74
2022/03/19 03:06:06;;;;;;;;;;;9.90;99.90;;;;;;5013204;28;20013;-74
2022/03/19 03:08:32;;;;;;;;;;;9.90;99.90;;;;;;5013347;28;19946;-74
2022/03/19 03:10:58;;;;;;;;;;;9.90;99.90;;;;;;5013276;28;19917;-74
2022/03/19 03:13:24;;;;;;;;;;;9.90;99.90;;;;;;5013097;28;19917;-74
2022/03/19 03:15:50;;;;;;;;;;;9.90;99.90;;;;;;5012232;28;20288;-74
2022/03/19 03:18:15;;;;;;;;;;;9.80;99.90;;;;;;5013132;28;19910;-74
2022/03/19 03:20:41;;;;;;;;;;;9.90;99.90;;;;;;5013200;28;19910;-74
2022/03/19 03:23:06;;;;;;;;;;;9.90;99.90;;;;;;5013007;28;19917;-74
2022/03/19 03:25:32;;;;;;;;;;;9.80;99.90;;;;;;5013007;28;19913;-74
2022/03/19 03:27:58;;;;;;;;;;;9.70;99.90;;;;;;5013069;28;19916;-74
2022/03/19 03:30:23;;;;;;;;;;;9.80;99.90;;;;;;5013425;28;19913;-74
2022/03/19 03:32:49;;;;;;;;;;;9.70;99.90;;;;;;5013213;28;20435;-74
2022/03/19 03:35:14;;;;;;;;;;;9.70;99.90;;;;;;5012859;28;19909;-74
2022/03/19 03:37:40;;;;;;;;;;;9.70;99.90;;;;;;5011685;28;20011;-74
2022/03/19 03:40:07;;;;;;;;;;;9.70;99.90;;;;;;5012748;28;19995;-74
2022/03/19 03:42:33;;;;;;;;;;;9.70;99.90;;;;;;5012521;28;19917;-71
2022/03/19 03:44:58;;;;;;;;;;;9.70;99.90;;;;;;5013280;28;20300;-73
2022/03/19 03:47:25;;;;;;;;;;;9.70;99.90;;;;;;5011422;28;20273;-73
2022/03/19 03:49:53;;;;;;;;;;;9.70;99.90;;;;;;5012733;28;20361;-75
2022/03/19 03:52:20;;;;;;;;;;;9.70;99.90;;;;;;5011590;28;21542;-75
2022/03/19 03:54:45;;;;;;;;;;;9.70;99.90;;;;;;5013298;28;19914;-75
2022/03/19 03:57:11;;;;;;;;;;;9.80;99.90;;;;;;5012791;28;19963;-75
2022/03/19 03:59:36;;;;;;;;;;;9.70;99.90;;;;;;5016538;28;19909;-74
2022/03/19 04:02:02;;;;;;;;;;;9.80;99.90;;;;;;5015302;28;19910;-74
2022/03/19 04:04:28;;;;;;;;;;;9.80;99.90;;;;;;5015439;28;19910;-75
2022/03/19 04:06:53;;;;;;;;;;;9.90;99.90;;;;;;5016636;28;20008;-75
2022/03/19 04:09:19;;;;;;;;;;;9.80;99.90;;;;;;5016464;28;19960;-75
2022/03/19 04:11:44;;;;;;;;;;;9.80;99.90;;;;;;5016316;28;19913;-74
2022/03/19 04:14:10;;;;;;;;;;;9.80;99.90;;;;;;5016450;28;19909;-73
2022/03/19 04:16:37;;;;;;;;;;;9.80;99.90;;;;;;5016275;28;20368;-74
2022/03/19 04:19:03;;;;;;;;;;;9.80;99.90;;;;;;5016772;28;19913;-74
2022/03/19 04:21:28;;;;;;;;;;;9.80;99.90;;;;;;5016352;28;20416;-75
2022/03/19 04:23:54;;;;;;;;;;;9.80;99.90;;;;;;5016305;28;20000;-74
2022/03/19 04:26:19;;;;;;;;;;;9.80;99.90;;;;;;5015828;28;19920;-75
2022/03/19 04:28:45;;;;;;;;;;;9.90;99.90;;;;;;5016066;28;19964;-74
2022/03/19 04:31:10;;;;;;;;;;;9.90;99.90;;;;;;5016421;28;19910;-75
2022/03/19 04:33:36;;;;;;;;;;;9.70;99.90;;;;;;5016300;28;19909;-75
2022/03/19 04:38:46;;;;;;;;;;;9.70;99.90;;;;;;5016010;28;19955;-73
2022/03/19 04:41:12;;;;;;;;;;;9.70;99.90;;;;;;5015942;28;19913;-75
2022/03/19 04:43:37;;;;;;;;;;;9.70;99.90;;;;;;5016207;28;20407;-74
2022/03/19 04:46:03;;;;;;;;;;;9.60;99.90;;;;;;5015737;28;19910;-75
2022/03/19 04:48:30;;;;;;;;;;;9.60;99.90;;;;;;5015736;28;20047;-75
2022/03/19 04:50:56;;;;;;;;;;;9.60;99.90;;;;;;5015826;28;19913;-75
2022/03/19 04:53:21;;;;;;;;;;;9.50;99.90;;;;;;5015357;28;19917;-75
2022/03/19 04:55:47;;;;;;;;;;;9.50;99.90;;;;;;5015835;28;19911;-74
2022/03/19 04:58:13;;;;;;;;;;;9.50;99.90;;;;;;5015589;28;19932;-75
2022/03/19 05:00:38;;;;;;;;;;;9.50;99.90;;;;;;5015995;28;20369;-74
2022/03/19 05:03:07;;;;;;;;;;;9.50;99.90;;;;;;5015553;28;19917;-75
2022/03/19 05:05:33;;;;;;;;;;;9.40;99.90;;;;;;5015601;28;19910;-75
2022/03/19 05:07:58;;;;;;;;;;;9.50;99.90;;;;;;5014898;28;19916;-75
2022/03/19 05:13:09;;;;;;;;;;;9.40;99.90;;;;;;5016049;28;20316;-74
2022/03/19 05:15:34;;;;;;;;;;;9.50;99.90;;;;;;5015302;28;20369;-74
2022/03/19 05:18:00;;;;;;;;;;;9.40;99.90;;;;;;5015491;28;20000;-74
2022/03/19 05:20:26;;;;;;;;;;;9.40;99.90;;;;;;5014045;28;19916;-75
2022/03/19 05:22:51;;;;;;;;;;;9.30;99.90;;;;;;5014731;28;20327;-73
2022/03/19 05:25:17;;;;;;;;;;;9.40;99.90;;;;;;5014511;28;19935;-75
2022/03/19 05:27:43;;;;;;;;;;;9.30;99.90;;;;;;5014787;28;19910;-75
2022/03/19 05:30:08;;;;;;;;;;;9.30;99.90;;;;;;5015182;28;19913;-75
2022/03/19 05:32:35;;;;;;;;;;;9.30;99.90;;;;;;5015029;28;19963;-75
2022/03/19 05:35:01;;;;;;;;;;;9.40;99.90;;;;;;5015147;28;19955;-75
2022/03/19 05:37:26;;;;;;;;;;;9.40;99.90;;;;;;5013491;28;19909;-75
2022/03/19 05:39:55;;;;;;;;;;;9.40;99.90;;;;;;5013565;28;20419;-75
2022/03/19 05:42:21;;;;;;;;;;;9.30;99.90;;;;;;5014540;28;19996;-75
2022/03/19 05:44:47;;;;;;;;;;;9.40;99.90;;;;;;5014920;28;19917;-75
2022/03/19 05:47:12;;;;;;;;;;;9.40;99.90;;;;;;5014747;28;19917;-74
2022/03/19 05:49:38;;;;;;;;;;;9.40;99.90;;;;;;5018348;28;19983;-75
2022/03/19 05:52:04;;;;;;;;;;;9.50;99.90;;;;;;5017636;28;20309;-75
2022/03/19 05:54:29;;;;;;;;;;;9.50;99.90;;;;;;5014402;28;20011;-75
2022/03/19 05:56:55;;;;;;;;;;;9.50;99.90;;;;;;5014585;28;20388;-75
2022/03/19 05:59:21;;;;;;;;;;;9.40;99.90;;;;;;5014521;28;20264;-75
2022/03/19 06:01:47;;;;;;;;;;;9.40;99.90;;;;;;5014441;28;19910;-75
2022/03/19 06:04:12;;;;;;;;;;;9.50;99.90;;;;;;5014930;28;19913;-75
2022/03/19 06:06:38;;;;;;;;;;;9.50;99.90;;;;;;5013903;28;20396;-74
2022/03/19 06:09:04;;;;;;;;;;;9.40;99.90;;;;;;5014417;28;20377;-75
2022/03/19 06:11:30;;;;;;;;;;;9.30;99.90;;;;;;5014086;28;19932;-74
2022/03/19 06:13:55;;;;;;;;;;;9.30;99.90;;;;;;5012877;28;19909;-74
2022/03/19 06:16:21;;;;;;;;;;;9.30;99.90;;;;;;5014378;28;19965;-74
2022/03/19 06:18:50;;;;;;;;;;;9.20;99.90;;;;;;5014215;28;20342;-74
2022/03/19 06:21:16;;;;;;;;;;;9.30;99.90;;;;;;5013119;28;20377;-74
2022/03/19 06:23:42;;;;;;;;;;;9.30;99.90;;;;;;5014112;28;19920;-74
2022/03/19 06:26:07;;;;;;;;;;;9.20;99.90;;;;;;5014136;28;20576;-74
2022/03/19 06:28:33;;;;;;;;;;;9.30;99.90;;;;;;5014296;28;19909;-75
2022/03/19 06:30:58;;;;;;;;;;;9.30;99.90;;;;;;5014126;28;19949;-75
2022/03/19 06:33:24;;;;;;;;;;;9.40;99.90;;;;;;5013723;28;20281;-75
2022/03/19 06:38:33;;;;;;;;;;;9.40;99.90;;;;;;5013647;28;20364;-75
2022/03/19 06:40:59;;;;;;;;;;;9.40;99.90;;;;;;5014436;28;19913;-75
2022/03/19 06:43:25;;;;;;;;;;;9.30;99.90;;;;;;5013395;28;19976;-75
2022/03/19 06:45:51;;;;;;;;;;;9.40;99.90;;;;;;5013911;28;20353;-75
2022/03/19 06:48:16;;;;;;;;;;;9.50;99.90;;;;;;5014061;28;19951;-75
2022/03/19 06:50:42;;;;;;;;;;;9.70;99.90;;;;;;5013006;28;20296;-75
2022/03/19 06:53:08;;;;;;;;;;;9.60;99.90;;;;;;5013594;28;19945;-75
2022/03/19 06:55:33;;;;;;;;;;;9.60;99.90;;;;;;5013484;28;20372;-75
2022/03/19 06:57:59;;;;;;;;;;;9.70;99.90;;;;;;5013290;28;20094;-75
2022/03/19 07:00:24;;;;;;;;;;;9.70;99.90;;;;;;5013751;28;19980;-75
2022/03/19 07:02:51;;;;;;;;;;;9.80;99.90;;;;;;5013810;28;19913;-75
2022/03/19 07:05:26;;;;;;;;;;;9.80;99.90;;;;;;5013101;28;19952;-75
2022/03/19 07:07:53;;;;;;;;;;;9.90;99.90;;;;;;5013356;28;20388;-74
2022/03/19 07:10:19;;;;;;;;;;;9.90;99.90;;;;;;5013761;28;20004;-75
2022/03/19 07:12:45;;;;;;;;;;;9.90;99.90;;;;;;5013272;28;20630;-75
2022/03/19 07:15:14;;;;;;;;;;;9.90;99.90;;;;;;5013376;28;19988;-75
2022/03/19 07:17:40;;;;;;;;;;;10.00;99.90;;;;;;5013161;28;19917;-75
2022/03/19 07:20:06;;;;;;;;;;;10.10;99.90;;;;;;5013515;28;19914;-75
2022/03/19 07:22:50;;;;;;;;;;;10.00;99.90;;;;;;5013051;28;19916;-74
2022/03/19 07:25:16;;;;;;;;;;;10.10;99.90;;;;;;5013263;28;20365;-75
2022/03/19 07:27:42;;;;;;;;;;;10.20;99.90;;;;;;5012965;28;19917;-75
2022/03/19 07:30:07;;;;;;;;;;;10.20;99.90;;;;;;5012991;28;19991;-75
2022/03/19 07:32:33;;;;;;;;;;;10.30;99.90;;;;;;5018272;28;19916;-75
2022/03/19 07:35:00;;;;;;;;;;;10.30;99.90;;;;;;5019715;28;19910;-75
2022/03/19 07:37:25;;;;;;;;;;;10.40;99.90;;;;;;5019756;28;19928;-75
2022/03/19 07:39:51;;;;;;;;;;;10.50;99.90;;;;;;5019594;28;19914;-75
2022/03/19 07:42:17;;;;;;;;;;;10.60;99.90;;;;;;5020066;28;20349;-75
2022/03/19 07:44:42;;;;;;;;;;;10.70;99.90;;;;;;5019240;28;20321;-74
2022/03/19 07:47:08;;;;;;;;;;;10.90;99.90;;;;;;5019628;28;20362;-74
2022/03/19 07:49:33;;;;;;;;;;;10.90;99.90;;;;;;5018770;28;19917;-75
2022/03/19 07:52:05;;;;;;;;;;;11.00;99.90;;;;;;5029448;28;19955;-75
2022/03/19 07:54:31;;;;;;;;;;;11.00;99.90;;;;;;5020892;28;19956;-74
2022/03/19 07:56:56;;;;;;;;;;;11.10;99.90;;;;;;5019603;28;19910;-74
2022/03/19 07:59:22;;;;;;;;;;;11.10;99.90;;;;;;5024507;28;20280;-75
2022/03/19 08:01:50;;;;;;;;;;;11.20;99.90;;;;;;5036054;28;19963;-75
2022/03/19 08:04:16;;;;;;;;;;;11.30;99.90;;;;;;5037225;28;20056;-75
2022/03/19 08:06:41;;;;;;;;;;;11.40;99.90;;;;;;5038010;28;19913;-74
2022/03/19 08:09:09;;;;;;;;;;;11.40;99.90;;;;;;5041429;28;19913;-78
2022/03/19 08:11:36;;;;;;;;;;;11.50;99.90;;;;;;5040294;28;19909;-75
2022/03/19 08:14:02;;;;;;;;;;;11.60;99.90;;;;;;5020788;28;20273;-75
2022/03/19 08:16:27;;;;;;;;;;;11.80;99.90;;;;;;5018879;28;20388;-75
2022/03/19 08:18:54;;;;;;;;;;;11.60;99.90;;;;;;5018623;28;19910;-75
2022/03/19 08:21:19;;;;;;;;;;;11.50;99.90;;;;;;5023477;28;19917;-74
2022/03/19 08:23:48;;;;;;;;;;;11.50;99.90;;;;;;5021509;28;20001;-76
2022/03/19 08:26:14;;;;;;;;;;;11.50;99.90;;;;;;5026767;28;19963;-74
2022/03/19 08:28:40;;;;;;;;;;;11.40;99.90;;;;;;5024514;28;19956;-74
2022/03/19 08:31:05;;;;;;;;;;;11.50;99.90;;;;;;5031051;28;20003;-73
2022/03/19 08:33:31;;;;;;;;;;;11.40;99.90;;;;;;5018215;28;19915;-73
2022/03/19 08:35:57;;;;;;;;;;;11.40;99.90;;;;;;5037876;28;20039;-74
2022/03/19 08:41:06;;;;;;;;;;;11.60;99.90;;;;;;5038079;28;20291;-73
2022/03/19 08:43:32;;;;;;;;;;;11.90;99.90;;;;;;5035110;28;19917;-73
2022/03/19 08:45:58;;;;;;;;;;;12.10;99.90;;;;;;5035063;28;19909;-73
2022/03/19 08:48:23;;;;;;;;;;;12.20;99.90;;;;;;5025697;28;19919;-74
2022/03/19 08:50:49;;;;;;;;;;;12.30;99.90;;;;;;5015020;28;19922;-73
2022/03/19 08:53:14;;;;;;;;;;;12.40;99.90;;;;;;5014871;28;19913;-74
2022/03/19 08:55:40;;;;;;;;;;;12.60;99.90;;;;;;5015349;28;20452;-74
2022/03/19 08:58:06;;;;;;;;;;;12.30;99.90;;;;;;5018685;28;19968;-74
2022/03/19 09:00:32;;;;;;;;;;;12.00;99.90;;;;;;5023136;28;19916;-74
2022/03/19 09:02:57;;;;;;;;;;;12.20;99.90;;;;;;5023189;28;19909;-74
2022/03/19 09:05:23;;;;;;;;;;;12.40;99.90;;;;;;5026540;28;20379;-73
2022/03/19 09:07:49;;;;;;;;;;;12.70;99.90;;;;;;5015891;28;19914;-73
2022/03/19 09:10:15;;;;;;;;;;;12.60;99.90;;;;;;5022171;28;20012;-73
2022/03/19 09:12:41;;;;;;;;;;;12.90;99.90;;;;;;5028280;28;19948;-73
2022/03/19 09:15:08;;;;;;;;;;;12.90;99.90;;;;;;5021944;28;19992;-73
2022/03/19 09:17:34;;;;;;;;;;;13.00;99.90;;;;;;5025624;28;19949;-78
2022/03/19 09:20:00;;;;;;;;;;;12.90;99.90;;;;;;5033911;28;19956;-79
2022/03/19 09:22:25;;;;;;;;;;;13.10;99.90;;;;;;5023356;28;19910;-78
2022/03/19 09:24:51;;;;;;;;;;;13.40;99.90;;;;;;5015469;28;19945;-78
2022/03/19 09:27:16;;;;;;;;;;;13.70;99.90;;;;;;5015342;28;19909;-78
2022/03/19 09:29:42;;;;;;;;;;;13.70;99.90;;;;;;5014638;28;20269;-76
2022/03/19 09:32:09;;;;;;;;;;;13.70;99.90;;;;;;5014511;28;19936;-77
2022/03/19 09:34:35;;;;;;;;;;;14.10;99.90;;;;;;5015277;28;19909;-76
2022/03/19 09:37:01;;;;;;;;;;;13.90;99.90;;;;;;5015426;28;19910;-76
2022/03/19 09:39:26;;;;;;;;;;;13.90;99.90;;;;;;5013736;28;19917;-75
2022/03/19 09:41:53;;;;;;;;;;;13.70;99.90;;;;;;5015038;28;19909;-76
2022/03/19 09:44:23;;;;;;;;;;;13.50;99.90;;;;;;5027082;28;20450;-76
2022/03/19 09:46:49;;;;;;;;;;;13.70;99.90;;;;;;5034705;28;19952;-76
2022/03/19 09:49:14;;;;;;;;;;;13.50;99.90;;;;;;5027537;28;19964;-76
2022/03/19 09:51:40;;;;;;;;;;;13.70;99.90;;;;;;5018592;28;19913;-75
2022/03/19 09:54:07;;;;;;;;;;;13.60;99.90;;;;;;5013964;28;19929;-76
2022/03/19 09:56:33;;;;;;;;;;;13.50;99.90;;;;;;5014170;28;20403;-76
2022/03/19 09:58:59;;;;;;;;;;;13.50;99.90;;;;;;5014575;28;20347;-76
2022/03/19 10:01:25;;;;;;;;;;;13.50;99.90;;;;;;5013437;28;20004;-76
2022/03/19 10:03:50;;;;;;;;;;;13.70;99.90;;;;;;5013489;28;19910;-76
2022/03/19 10:09:01;;;;;;;;;;;13.90;99.90;;;;;;5014515;28;19924;-76
2022/03/19 10:11:31;;;;;;;;;;;13.60;99.90;;;;;;5014673;28;19910;-76
2022/03/19 10:13:57;;;;;;;;;;;13.80;99.90;;;;;;5014169;28;20346;-76
2022/03/19 10:16:24;;;;;;;;;;;13.90;99.90;;;;;;5014519;28;19964;-76
2022/03/19 10:19:00;;;;;;;;;;;14.00;99.90;;;;;;5014458;28;19975;-76
2022/03/19 10:21:26;;;;;;;;;;;13.80;99.90;;;;;;5013740;28;19972;-76
2022/03/19 10:23:52;;;;;;;;;;;13.60;99.90;;;;;;5013319;28;20230;-76
2022/03/19 10:26:31;;;;;;;;;;;14.00;99.90;;;;;;5013949;28;19916;-77
2022/03/19 10:28:56;;;;;;;;;;;14.30;99.90;;;;;;5014486;28;19914;-77
2022/03/19 10:31:30;;;;;;;;;;;14.40;99.90;;;;;;5012383;28;19913;-76
2022/03/19 10:33:55;;;;;;;;;;;14.30;99.70;;;;;;5014069;28;19909;-80
2022/03/19 10:36:27;;;;;;;;;;;13.80;99.70;;;;;;5013588;28;19967;-76
2022/03/19 10:38:53;;;;;;;;;;;14.20;99.90;;;;;;5013517;28;20008;-76
2022/03/19 10:41:18;;;;;;;;;;;14.70;99.30;;;;;;5013342;28;20007;-76
2022/03/19 10:43:44;;;;;;;;;;;14.50;98.30;;;;;;5017970;28;19921;-76
2022/03/19 10:46:10;;;;;;;;;;;14.50;97.90;;;;;;5024529;28;20288;-76
2022/03/19 10:48:35;;;;;;;;;;;14.50;97.70;;;;;;5028716;28;19916;-77
2022/03/19 10:51:02;;;;;;;;;;;14.40;98.30;;;;;;5012514;28;19925;-77
2022/03/19 10:53:27;;;;;;;;;;;14.30;98.00;;;;;;5016507;28;19944;-76
2022/03/19 10:55:53;;;;;;;;;;;14.30;98.20;;;;;;5021427;28;20368;-77
2022/03/19 10:58:19;;;;;;;;;;;14.20;98.00;;;;;;5019267;28;19963;-77
2022/03/19 11:00:48;;;;;;;;;;;13.90;97.90;;;;;;5025028;28;19917;-76
2022/03/19 11:03:18;;;;;;;;;;;14.00;98.30;;;;;;5014306;28;19909;-76
2022/03/19 11:05:44;;;;;;;;;;;14.00;98.10;;;;;;5023072;28;19912;-82
2022/03/19 11:08:10;;;;;;;;;;;14.20;97.70;;;;;;5014014;28;19927;-77
2022/03/19 11:10:36;;;;;;;;;;;14.20;97.70;;;;;;5019645;28;19913;-79
2022/03/19 11:13:03;;;;;;;;;;;14.40;97.50;;;;;;5031624;28;20277;-76
2022/03/19 11:15:35;;;;;;;;;;;14.20;97.30;;;;;;5022896;28;19913;-78
2022/03/19 11:18:03;;;;;;;;;;;13.90;97.60;;;;;;5019322;28;19920;-79
2022/03/19 11:20:30;;;;;;;;;;;13.90;98.00;;;;;;5020891;28;19918;-76
2022/03/19 11:22:56;;;;;;;;;;;14.10;98.00;;;;;;5021299;28;19999;-76
2022/03/19 11:25:22;;;;;;;;;;;14.10;98.10;;;;;;5028736;28;20419;-77
2022/03/19 11:27:49;;;;;;;;;;;14.30;98.10;;;;;;5024177;28;19917;-76
2022/03/19 11:30:21;;;;;;;;;;;14.50;97.70;;;;;;5011530;28;19914;-77
2022/03/19 11:33:05;;;;;;;;;;;14.50;97.40;;;;;;5025004;28;19924;-78
2022/03/19 11:35:31;;;;;;;;;;;14.90;98.00;;;;;;5031868;28;19909;-77
2022/03/19 11:37:56;;;;;;;;;;;14.90;96.80;;;;;;5032120;28;19989;-78
2022/03/19 11:40:22;;;;;;;;;;;15.20;96.10;;;;;;5032792;28;20349;-78
2022/03/19 11:42:55;;;;;;;;;;;14.80;96.50;;;;;;5026632;28;19972;-79
2022/03/19 11:45:20;;;;;;;;;;;14.90;96.90;;;;;;5013436;28;19919;-77
2022/03/19 11:47:46;;;;;;;;;;;14.90;96.50;;;;;;5013277;28;19996;-78
2022/03/19 11:50:19;;;;;;;;;;;14.90;96.70;;;;;;5013059;28;19976;-81
2022/03/19 11:52:54;;;;;;;;;;;14.60;96.20;;;;;;5013168;28;20281;-77
2022/03/19 11:55:20;;;;;;;;;;;14.70;96.80;;;;;;5011116;28;20442;-78
2022/03/19 11:57:45;;;;;;;;;;;14.70;96.60;;;;;;5018393;28;19913;-77
2022/03/19 12:00:13;;;;;;;;;;;14.50;96.80;;;;;;5030962;28;20361;-81
2022/03/19 12:02:57;;;;;;;;;;;14.70;97.10;;;;;;5021115;28;19909;-81
2022/03/19 12:05:26;;;;;;;;;;;14.20;96.30;;;;;;5020774;28;20281;-77
2022/03/19 12:07:54;;;;;;;;;;;14.30;96.80;;;;;;5013642;28;20365;-77
2022/03/19 12:10:21;;;;;;;;;;;14.20;96.70;;;;;;5011761;28;19925;-77
2022/03/19 12:12:47;;;;;;;;;;;14.30;96.70;;;;;;5015615;28;19918;-76
2022/03/19 12:15:31;;;;;;;;;;;14.30;96.30;;;;;;5019746;28;19940;-76
2022/03/19 12:18:15;;;;;;;;;;;14.20;96.30;;;;;;5015594;28;19909;-77
2022/03/19 12:20:44;;;;;;;;;;;14.00;96.30;;;;;;5019799;28;20395;-77
2022/03/19 12:23:12;;;;;;;;;;;14.40;96.70;;;;;;5012306;28;19941;-77
2022/03/19 12:25:43;;;;;;;;;;;14.60;96.50;;;;;;5015759;28;19944;-77
2022/03/19 12:28:15;;;;;;;;;;;14.40;96.50;;;;;;5016314;28;19949;-76
2022/03/19 12:30:40;;;;;;;;;;;14.50;96.80;;;;;;5019527;28;19917;-76
2022/03/19 12:33:06;;;;;;;;;;;14.20;96.80;;;;;;5019124;28;19913;-76
2022/03/19 12:35:31;;;;;;;;;;;14.40;97.00;;;;;;5024796;28;19922;-77
2022/03/19 12:37:57;;;;;;;;;;;14.40;97.20;;;;;;5023336;28;19910;-77
2022/03/19 12:40:26;;;;;;;;;;;14.30;96.70;;;;;;5033230;28;20377;-77
2022/03/19 12:42:57;;;;;;;;;;;14.20;97.10;;;;;;5017533;28;20369;-77
2022/03/19 12:45:39;;;;;;;;;;;14.40;96.90;;;;;;5030542;28;19948;-77
2022/03/19 12:48:34;;;;;;;;;;;14.40;97.00;;;;;;5009865;28;20282;-77
2022/03/19 12:50:59;;;;;;;;;;;14.60;96.90;;;;;;5013544;28;19917;-77
2022/03/19 12:53:29;;;;;;;;;;;14.60;96.80;;;;;;5030942;28;19919;-77
2022/03/19 12:56:27;;;;;;;;;;;14.70;96.00;;;;;;5016518;28;19913;-77
2022/03/19 12:58:54;;;;;;;;;;;14.60;96.00;;;;;;4916750;29;20304;-76
2022/03/19 13:01:21;;;;;;;;;;;14.00;99.90;;;;;;4916929;29;19928;-76
2022/03/19 13:03:51;;;;;;;;;;;14.10;99.90;;;;;;4916743;29;19947;-76
2022/03/19 13:06:25;;;;;;;;;;;15.00;99.90;;;;;;4916575;29;19915;-77
2022/03/19 13:08:50;;;;;;;;;;;15.60;99.90;;;;;;4944418;29;19954;-77
2022/03/19 13:11:17;;;;;;;;;;;14.50;99.90;;;;;;4942657;29;19957;-78
2022/03/19 13:13:43;;;;;;;;;;;14.70;98.40;;;;;;4947557;29;19917;-78
2022/03/19 13:16:09;;;;;;;;;;;14.60;97.80;;;;;;4943263;29;19911;-78
2022/03/19 13:18:36;;;;;;;;;;;14.40;97.60;;;;;;4936119;29;19950;-77
2022/03/19 13:21:04;;;;;;;;;;;14.60;97.00;;;;;;4937349;29;19922;-77
2022/03/19 13:23:30;;;;;;;;;;;15.40;99.90;;;;;;4946896;29;19911;-77
2022/03/19 13:25:59;;;;;;;;;;;15.10;99.90;;;;;;4938330;29;19950;-82
2022/03/19 13:28:25;;;;;;;;;;;14.60;99.90;;;;;;4941668;29;19962;-76
2022/03/19 13:30:50;;;;;;;;;;;13.90;99.90;;;;;;4953121;28;19918;-77
2022/03/19 13:33:16;;;;;;;;;;;15.60;99.90;;;;;;4939216;28;20072;-77
2022/03/19 13:35:47;;;;;;;;;;;15.30;99.90;;;;;;5014311;28;19916;-77
2022/03/19 13:38:14;;;;;;;;;;;15.50;99.90;;;;;;5014532;28;19932;-77
2022/03/19 13:40:40;;;;;;;;;;;;;;;;;;5014376;28;19952;-77
2022/03/19 13:43:06;;;;;;;;;;;15.40;99.90;;;;;;5013435;28;19956;-77
2022/03/19 13:45:32;;;;;;;;;;;13.30;99.90;;;;;;5010683;28;19913;-77
2022/03/19 13:48:02;;;;;;;;;;;15.30;99.90;;;;;;5014544;28;19910;-76
2022/03/19 13:50:28;;;;;;;;;;;13.70;99.90;;;;;;5015645;28;20047;-76
2022/03/19 13:52:59;;;;;;;;;;;;;;;;;;5013703;28;20008;-76
2022/03/19 13:55:27;;;;;;;;;;;14.10;99.90;;;;;;5013573;28;19949;-76
2022/03/19 13:57:57;;;;;;;;;;;14.00;99.90;;;;;;5013714;28;19909;-77
2022/03/19 14:00:26;;;;;;;;;;;14.20;99.90;;;;;;5014019;28;20348;-76
2022/03/19 14:03:24;;;;;;;;;;;15.40;99.90;;;;;;5014315;28;19955;-77
2022/03/19 14:05:52;;;;;;;;;;;15.20;97.50;;;;;;4960065;28;19914;-77
2022/03/19 14:08:19;;;;;;;;;;;15.50;99.20;;;;;;4955237;28;19969;-76
2022/03/19 14:10:46;;;;;;;;;;;14.80;98.90;;;;;;4964547;28;19918;-76
2022/03/19 14:13:15;;;;;;;;;;;14.40;98.90;;;;;;4963303;28;19910;-76
2022/03/19 14:15:42;;;;;;;;;;;14.90;99.00;;;;;;4961405;28;19926;-76
2022/03/19 14:18:08;;;;;;;;;;;15.40;97.20;;;;;;4954442;28;19925;-76
2022/03/19 14:20:34;;;;;;;;;;;14.00;99.90;;;;;;4959184;28;20049;-76
2022/03/19 14:23:00;;;;;;;;;;;14.20;99.90;;;;;;4966264;28;19950;-76
2022/03/19 14:25:26;;;;;;;;;;;14.10;99.90;;;;;;4955138;28;20024;-76
2022/03/19 14:28:02;;;;;;;;;;;13.90;97.60;;;;;;4956680;28;20045;-76
2022/03/19 14:30:29;;;;;;;;;;;14.60;98.70;;;;;;4952523;28;19914;-77
2022/03/19 14:32:55;;;;;;;;;;;13.90;96.60;;;;;;4965108;28;19922;-78
2022/03/19 14:35:38;;;;;;;;;;;14.20;97.50;;;;;;4951923;28;19924;-78
2022/03/19 14:38:05;;;;;;;;;;;13.80;99.90;;;;;;4954533;28;20333;-78